Dallas, Georgia
Current Conditions -  °F | °C
As of 4:35 PM on Saturday 22 Nov 2014 (Local Time) from KPUJ Reporting Station
Scattered Clouds Scattered Clouds  
Wind Chill: 59°   Ceiling: Unl
Heat Index: 59°   Visibility: 10mi
Dew Point: 36°   Wind: 7mph
Humidity: 42%   Direction: 130°SE
Pressure: 30.25"   Gusts: NA
Location:  33.92°N, 84.83°W
Report Text: KPUJ 222135Z AUTO 13006KT 10SM SCT043 15/02 A3025 RMK AO2
Loading
Personal Weather Stations






























Interactive Weather Map New forecast layout! Learn more

10-Day Weather Forecast

Advertisements
Track Severe Weather on mobile